Valognes, Francia

6:16 AM CEST en Agosto 31, 2014 (GMT +0200)
Maupertus | Change Station
CLOSE
Current Station
Aeropuerto
Location: Cherbourg,
Altura: 453 ft
Estaciones meteorológicas cercanas

Alt 453 ft 49.65 °N, 1.46 °W | Updated 16 minutes ago

Overcast
Nublado
57 ° F
Sensación térmica 57 ° F
N
6
Viento Variable Viento desde ONO

Hoy
Alta -- | Baja -- ° F
--% Posibilidad de precipitaciones
Ayer
Alta -- | Baja -- ° F
Precip. -- pul
7:20 AM 8:51 PM
Creciente, 27% visible
Presión 30.09 pul
Visibilidad 6.2 Millas
Nubes Nublado 1100 ft
Punto de rocío 54 ° F
Humedad 88%
Precipitaciones 0.00 pul
Espesor de la nieve No disponible.
UV 0 de una escala de 12
Polen No disponible.
Calidad del aire No disponible.
Flu Activity No disponible.
METAR LFRC 310400Z AUTO 29005KT 260V330 9999 OVC011 14/12 Q1019

More Conditions Fewer Conditions

Presión 30.09 pul
Visibilidad 6.2 Millas
Nubes Nublado 1100 ft
Punto de rocío 54 ° F
Humedad 88%
Precipitaciones 0.00 pul
Espesor de la nieve No disponible.
UV 0 de una escala de 12
Polen No disponible.
Calidad del aire No disponible.
Flu Activity No disponible.
METAR LFRC 310400Z AUTO 29005KT 260V330 9999 OVC011 14/12 Q1019

More Conditions Fewer Conditions

10-Day Weather Forecast

Almanac

Astronomía

Aug. 31, 2014 Salida Puesta
Hora real 7:20 AM CEST 8:51 PM CEST
Crepúsculo civil 6:46 AM CEST 9:24 PM CEST
Crepúsculo náutico 6:05 AM CEST 10:05 PM CEST
Crepúsculo astronómico 5:21 AM CEST 10:49 PM CEST
Luna 1:25 PM CEST 11:22 PM CEST
Horas de luz 14h 38m
Horas de luz
13h 31m
Tomorrow will be 3m 33s shorter.
Creciente, 27% of the Moon is Illuminated
Hoy
Creciente
Sep 2
Cuarto creciente
Sep 8
Luna llena
Sep 15
Cuarto menguante
Sep 24
Nueva

Extremos de ayer

Máximos del país Bajas del país

Community

WunderPhotos

Upload Photos

1,748,779 ¡fotos cargadas!

Nearby

Calidad del aire

Not available.

Grosos de nieve

Not available.

Actividad de terremotos

Ciudad Distance Mag. Tiempo y dato
No hay informes recientes de la actividad sísmica.
Magnitud mínima muestra es 2,5.

Temperaturas de aguas costeras

Lugar Temperatura
Sin partes meteorológicos de las estaciones

Estaciones meteorológicas cercanas